sensor_id;sensor_type;location;lat;lon;timestamp;temperature;humidity
40696;DHT22;40425;51.102;17.208;2022-08-11T00:04:24;14.70;99.90
40696;DHT22;40425;51.102;17.208;2022-08-11T00:09:32;14.70;99.90
40696;DHT22;40425;51.102;17.208;2022-08-11T00:14:34;14.60;99.90
40696;DHT22;40425;51.102;17.208;2022-08-11T00:19:38;14.40;99.90
40696;DHT22;40425;51.102;17.208;2022-08-11T00:24:41;14.40;99.90
40696;DHT22;40425;51.102;17.208;2022-08-11T00:29:54;14.30;99.90
40696;DHT22;40425;51.102;17.208;2022-08-11T00:34:57;14.20;99.90
40696;DHT22;40425;51.102;17.208;2022-08-11T00:39:59;14.20;99.90
40696;DHT22;40425;51.102;17.208;2022-08-11T00:45:22;14.20;99.90
40696;DHT22;40425;51.102;17.208;2022-08-11T00:50:50;14.20;99.90
40696;DHT22;40425;51.102;17.208;2022-08-11T01:07:09;13.90;99.90
40696;DHT22;40425;51.102;17.208;2022-08-11T01:13:17;13.80;99.90
40696;DHT22;40425;51.102;17.208;2022-08-11T01:18:40;13.80;99.90
40696;DHT22;40425;51.102;17.208;2022-08-11T01:40:50;13.20;99.90
40696;DHT22;40425;51.102;17.208;2022-08-11T01:46:13;13.10;99.90
40696;DHT22;40425;51.102;17.208;2022-08-11T02:02:20;13.10;99.90
40696;DHT22;40425;51.102;17.208;2022-08-11T02:08:13;12.90;99.90
40696;DHT22;40425;51.102;17.208;2022-08-11T02:13:46;12.90;99.90
40696;DHT22;40425;51.102;17.208;2022-08-11T02:19:10;12.90;99.90
40696;DHT22;40425;51.102;17.208;2022-08-11T02:24:53;12.70;99.90
40696;DHT22;40425;51.102;17.208;2022-08-11T02:30:10;12.70;99.90
40696;DHT22;40425;51.102;17.208;2022-08-11T02:35:28;12.60;99.90
40696;DHT22;40425;51.102;17.208;2022-08-11T02:51:28;12.60;99.90
40696;DHT22;40425;51.102;17.208;2022-08-11T03:01:58;12.40;99.90
40696;DHT22;40425;51.102;17.208;2022-08-11T03:07:45;12.30;99.90
40696;DHT22;40425;51.102;17.208;2022-08-11T03:18:44;12.20;99.90
40696;DHT22;40425;51.102;17.208;2022-08-11T03:24:07;12.20;99.90
40696;DHT22;40425;51.102;17.208;2022-08-11T03:29:41;12.10;99.90
40696;DHT22;40425;51.102;17.208;2022-08-11T03:34:44;12.10;99.90
40696;DHT22;40425;51.102;17.208;2022-08-11T04:12:34;14.40;99.90
40696;DHT22;40425;51.102;17.208;2022-08-11T04:28:59;17.60;99.90
40696;DHT22;40425;51.102;17.208;2022-08-11T04:39:23;24.00;98.00
40696;DHT22;40425;51.102;17.208;2022-08-11T04:50:24;24.60;91.80
40696;DHT22;40425;51.102;17.208;2022-08-11T05:12:16;16.50;99.90
40696;DHT22;40425;51.102;17.208;2022-08-11T05:23:12;16.10;99.90
40696;DHT22;40425;51.102;17.208;2022-08-11T05:28:37;16.00;99.90
40696;DHT22;40425;51.102;17.208;2022-08-11T05:34:02;15.90;99.90
40696;DHT22;40425;51.102;17.208;2022-08-11T05:39:27;15.80;99.90
40696;DHT22;40425;51.102;17.208;2022-08-11T05:44:49;16.00;99.90
40696;DHT22;40425;51.102;17.208;2022-08-11T05:50:11;16.10;99.90
40696;DHT22;40425;51.102;17.208;2022-08-11T05:55:32;16.20;99.90
40696;DHT22;40425;51.102;17.208;2022-08-11T06:00:52;16.40;99.90
40696;DHT22;40425;51.102;17.208;2022-08-11T06:05:53;16.60;99.90
40696;DHT22;40425;51.102;17.208;2022-08-11T06:11:02;16.80;99.90
40696;DHT22;40425;51.102;17.208;2022-08-11T06:16:04;16.90;99.90
40696;DHT22;40425;51.102;17.208;2022-08-11T06:21:08;17.20;99.90
40696;DHT22;40425;51.102;17.208;2022-08-11T06:26:12;17.40;99.90
40696;DHT22;40425;51.102;17.208;2022-08-11T06:31:19;17.60;99.90
40696;DHT22;40425;51.102;17.208;2022-08-11T06:36:26;17.90;99.90
40696;DHT22;40425;51.102;17.208;2022-08-11T06:41:44;18.10;99.90
40696;DHT22;40425;51.102;17.208;2022-08-11T06:46:51;18.40;99.90
40696;DHT22;40425;51.102;17.208;2022-08-11T06:51:55;18.90;99.90
40696;DHT22;40425;51.102;17.208;2022-08-11T06:56:59;19.20;99.90
40696;DHT22;40425;51.102;17.208;2022-08-11T07:12:49;19.90;99.90
40696;DHT22;40425;51.102;17.208;2022-08-11T07:18:16;20.10;99.90
40696;DHT22;40425;51.102;17.208;2022-08-11T07:23:39;20.30;99.90
40696;DHT22;40425;51.102;17.208;2022-08-11T07:28:58;20.50;99.90
40696;DHT22;40425;51.102;17.208;2022-08-11T07:34:14;20.70;99.90
40696;DHT22;40425;51.102;17.208;2022-08-11T07:39:32;20.80;99.90
40696;DHT22;40425;51.102;17.208;2022-08-11T07:44:35;21.10;99.90
40696;DHT22;40425;51.102;17.208;2022-08-11T07:49:59;21.30;99.90
40696;DHT22;40425;51.102;17.208;2022-08-11T07:55:20;21.70;99.90
40696;DHT22;40425;51.102;17.208;2022-08-11T08:00:23;21.70;99.90
40696;DHT22;40425;51.102;17.208;2022-08-11T08:05:44;22.00;99.90
40696;DHT22;40425;51.102;17.208;2022-08-11T08:11:03;22.20;99.90
40696;DHT22;40425;51.102;17.208;2022-08-11T08:16:23;22.30;99.90
40696;DHT22;40425;51.102;17.208;2022-08-11T08:21:43;22.30;99.90
40696;DHT22;40425;51.102;17.208;2022-08-11T08:26:45;22.40;99.90
40696;DHT22;40425;51.102;17.208;2022-08-11T08:32:01;22.70;99.90
40696;DHT22;40425;51.102;17.208;2022-08-11T08:37:04;22.90;99.90
40696;DHT22;40425;51.102;17.208;2022-08-11T08:42:10;23.00;99.90
40696;DHT22;40425;51.102;17.208;2022-08-11T08:47:15;23.20;99.50
40696;DHT22;40425;51.102;17.208;2022-08-11T08:52:22;23.30;99.90
40696;DHT22;40425;51.102;17.208;2022-08-11T08:57:27;23.60;99.20
40696;DHT22;40425;51.102;17.208;2022-08-11T09:02:31;23.50;99.00
40696;DHT22;40425;51.102;17.208;2022-08-11T09:07:34;23.80;98.70
40696;DHT22;40425;51.102;17.208;2022-08-11T09:12:37;24.20;96.10
40696;DHT22;40425;51.102;17.208;2022-08-11T09:17:45;24.30;96.50
40696;DHT22;40425;51.102;17.208;2022-08-11T09:22:48;24.30;95.80
40696;DHT22;40425;51.102;17.208;2022-08-11T09:28:14;24.50;94.70
40696;DHT22;40425;51.102;17.208;2022-08-11T09:33:20;24.30;94.50
40696;DHT22;40425;51.102;17.208;2022-08-11T09:38:26;24.50;94.30
40696;DHT22;40425;51.102;17.208;2022-08-11T09:43:46;24.60;94.00
40696;DHT22;40425;51.102;17.208;2022-08-11T09:49:06;24.80;92.40
40696;DHT22;40425;51.102;17.208;2022-08-11T09:54:07;24.90;91.80
40696;DHT22;40425;51.102;17.208;2022-08-11T09:59:08;24.90;91.20
40696;DHT22;40425;51.102;17.208;2022-08-11T10:04:15;25.00;90.80
40696;DHT22;40425;51.102;17.208;2022-08-11T10:09:18;24.90;91.00
40696;DHT22;40425;51.102;17.208;2022-08-11T10:14:20;24.90;91.00
40696;DHT22;40425;51.102;17.208;2022-08-11T10:19:41;25.50;91.00
40696;DHT22;40425;51.102;17.208;2022-08-11T10:24:44;25.50;89.70
40696;DHT22;40425;51.102;17.208;2022-08-11T10:30:06;25.00;87.20
40696;DHT22;40425;51.102;17.208;2022-08-11T10:35:30;24.70;89.40
40696;DHT22;40425;51.102;17.208;2022-08-11T10:40:32;25.20;88.80
40696;DHT22;40425;51.102;17.208;2022-08-11T10:45:37;25.40;84.90
40696;DHT22;40425;51.102;17.208;2022-08-11T10:50:57;25.30;82.60
40696;DHT22;40425;51.102;17.208;2022-08-11T10:56:13;25.00;83.10
40696;DHT22;40425;51.102;17.208;2022-08-11T11:01:33;24.70;82.40
40696;DHT22;40425;51.102;17.208;2022-08-11T11:11:52;25.10;81.10
40696;DHT22;40425;51.102;17.208;2022-08-11T11:17:14;24.90;80.90
40696;DHT22;40425;51.102;17.208;2022-08-11T11:22:34;24.70;82.40
40696;DHT22;40425;51.102;17.208;2022-08-11T11:38:40;25.00;81.60
40696;DHT22;40425;51.102;17.208;2022-08-11T11:43:41;25.50;78.40
40696;DHT22;40425;51.102;17.208;2022-08-11T11:48:42;26.30;79.10
40696;DHT22;40425;51.102;17.208;2022-08-11T11:53:44;26.50;78.80
40696;DHT22;40425;51.102;17.208;2022-08-11T11:58:47;26.40;78.80
40696;DHT22;40425;51.102;17.208;2022-08-11T12:04:07;26.10;79.30
40696;DHT22;40425;51.102;17.208;2022-08-11T12:09:10;25.60;77.50
40696;DHT22;40425;51.102;17.208;2022-08-11T12:14:18;25.80;78.00
40696;DHT22;40425;51.102;17.208;2022-08-11T12:19:23;26.50;76.00
40696;DHT22;40425;51.102;17.208;2022-08-11T12:24:26;26.40;78.00
40696;DHT22;40425;51.102;17.208;2022-08-11T12:29:51;25.70;77.00
40696;DHT22;40425;51.102;17.208;2022-08-11T12:34:54;25.30;76.70
40696;DHT22;40425;51.102;17.208;2022-08-11T12:40:12;25.30;78.30
40696;DHT22;40425;51.102;17.208;2022-08-11T12:45:31;25.70;78.60
40696;DHT22;40425;51.102;17.208;2022-08-11T12:50:34;26.10;78.70
40696;DHT22;40425;51.102;17.208;2022-08-11T12:55:56;26.50;74.60
40696;DHT22;40425;51.102;17.208;2022-08-11T13:01:18;26.40;73.70
40696;DHT22;40425;51.102;17.208;2022-08-11T13:06:39;26.40;75.10
40696;DHT22;40425;51.102;17.208;2022-08-11T13:11:41;25.90;74.80
40696;DHT22;40425;51.102;17.208;2022-08-11T13:17:01;25.20;77.40
40696;DHT22;40425;51.102;17.208;2022-08-11T13:22:21;25.10;77.40
40696;DHT22;40425;51.102;17.208;2022-08-11T13:27:24;25.50;75.90
40696;DHT22;40425;51.102;17.208;2022-08-11T13:32:25;26.00;76.50
40696;DHT22;40425;51.102;17.208;2022-08-11T13:37:27;26.30;75.70
40696;DHT22;40425;51.102;17.208;2022-08-11T13:42:29;26.40;74.10
40696;DHT22;40425;51.102;17.208;2022-08-11T13:47:30;26.40;75.90
40696;DHT22;40425;51.102;17.208;2022-08-11T13:52:33;26.50;77.10
40696;DHT22;40425;51.102;17.208;2022-08-11T13:57:36;26.20;75.20
40696;DHT22;40425;51.102;17.208;2022-08-11T14:02:41;25.80;76.20
40696;DHT22;40425;51.102;17.208;2022-08-11T14:08:02;25.90;76.70
40696;DHT22;40425;51.102;17.208;2022-08-11T14:13:14;26.00;74.30
40696;DHT22;40425;51.102;17.208;2022-08-11T14:18:35;25.70;73.00
40696;DHT22;40425;51.102;17.208;2022-08-11T14:23:47;25.50;75.50
40696;DHT22;40425;51.102;17.208;2022-08-11T14:28:53;25.40;75.50
40696;DHT22;40425;51.102;17.208;2022-08-11T14:33:58;25.70;75.30
40696;DHT22;40425;51.102;17.208;2022-08-11T14:39:07;26.10;75.50
40696;DHT22;40425;51.102;17.208;2022-08-11T14:44:12;26.40;73.60
40696;DHT22;40425;51.102;17.208;2022-08-11T14:49:35;25.40;74.40
40696;DHT22;40425;51.102;17.208;2022-08-11T14:54:36;25.10;74.70
40696;DHT22;40425;51.102;17.208;2022-08-11T14:59:59;25.30;74.50
40696;DHT22;40425;51.102;17.208;2022-08-11T15:05:03;25.60;74.50
40696;DHT22;40425;51.102;17.208;2022-08-11T15:10:06;25.80;73.20
40696;DHT22;40425;51.102;17.208;2022-08-11T15:15:08;25.90;74.40
40696;DHT22;40425;51.102;17.208;2022-08-11T15:20:30;26.00;74.70
40696;DHT22;40425;51.102;17.208;2022-08-11T15:31:02;24.90;73.80
40696;DHT22;40425;51.102;17.208;2022-08-11T15:36:43;24.70;74.30
40696;DHT22;40425;51.102;17.208;2022-08-11T15:42:12;25.10;74.00
40696;DHT22;40425;51.102;17.208;2022-08-11T15:47:43;25.20;73.00
40696;DHT22;40425;51.102;17.208;2022-08-11T15:52:51;25.40;73.60
40696;DHT22;40425;51.102;17.208;2022-08-11T15:57:54;25.40;73.50
40696;DHT22;40425;51.102;17.208;2022-08-11T16:03:16;25.30;73.10
40696;DHT22;40425;51.102;17.208;2022-08-11T16:08:39;25.40;74.50
40696;DHT22;40425;51.102;17.208;2022-08-11T16:13:41;25.40;74.30
40696;DHT22;40425;51.102;17.208;2022-08-11T16:18:50;25.40;74.50
40696;DHT22;40425;51.102;17.208;2022-08-11T16:23:55;25.30;73.90
40696;DHT22;40425;51.102;17.208;2022-08-11T16:29:00;25.20;73.10
40696;DHT22;40425;51.102;17.208;2022-08-11T16:34:03;25.00;73.70
40696;DHT22;40425;51.102;17.208;2022-08-11T16:39:06;24.50;73.80
40696;DHT22;40425;51.102;17.208;2022-08-11T16:44:09;24.30;75.30
40696;DHT22;40425;51.102;17.208;2022-08-11T16:49:35;24.20;75.60
40696;DHT22;40425;51.102;17.208;2022-08-11T16:54:37;24.30;77.00
40696;DHT22;40425;51.102;17.208;2022-08-11T16:59:39;24.40;82.00
40696;DHT22;40425;51.102;17.208;2022-08-11T17:04:51;24.10;85.00
40696;DHT22;40425;51.102;17.208;2022-08-11T17:10:28;23.80;85.00
40696;DHT22;40425;51.102;17.208;2022-08-11T17:15:49;23.30;86.50
40696;DHT22;40425;51.102;17.208;2022-08-11T17:21:19;23.10;87.90
40696;DHT22;40425;51.102;17.208;2022-08-11T17:26:38;22.90;89.30
40696;DHT22;40425;51.102;17.208;2022-08-11T17:32:01;22.70;90.00
40696;DHT22;40425;51.102;17.208;2022-08-11T17:37:22;22.60;90.60
40696;DHT22;40425;51.102;17.208;2022-08-11T17:42:27;22.40;90.90
40696;DHT22;40425;51.102;17.208;2022-08-11T17:47:47;22.40;91.20
40696;DHT22;40425;51.102;17.208;2022-08-11T17:53:08;22.30;91.70
40696;DHT22;40425;51.102;17.208;2022-08-11T17:58:30;22.30;91.80
40696;DHT22;40425;51.102;17.208;2022-08-11T18:03:50;22.30;92.20
40696;DHT22;40425;51.102;17.208;2022-08-11T18:08:52;22.20;92.40
40696;DHT22;40425;51.102;17.208;2022-08-11T18:14:12;22.10;92.50
40696;DHT22;40425;51.102;17.208;2022-08-11T18:19:32;22.10;92.80
40696;DHT22;40425;51.102;17.208;2022-08-11T18:24:56;22.00;93.20
40696;DHT22;40425;51.102;17.208;2022-08-11T18:30:17;21.80;93.90
40696;DHT22;40425;51.102;17.208;2022-08-11T18:35:36;21.60;94.70
40696;DHT22;40425;51.102;17.208;2022-08-11T18:40:58;21.30;95.00
40696;DHT22;40425;51.102;17.208;2022-08-11T18:46:20;21.20;95.10
40696;DHT22;40425;51.102;17.208;2022-08-11T18:51:46;21.10;95.10
40696;DHT22;40425;51.102;17.208;2022-08-11T18:57:07;21.00;95.50
40696;DHT22;40425;51.102;17.208;2022-08-11T19:02:27;20.90;95.80
40696;DHT22;40425;51.102;17.208;2022-08-11T19:07:49;20.80;96.20
40696;DHT22;40425;51.102;17.208;2022-08-11T19:13:11;20.60;96.80
40696;DHT22;40425;51.102;17.208;2022-08-11T19:18:32;20.50;97.30
40696;DHT22;40425;51.102;17.208;2022-08-11T19:23:55;20.30;98.00
40696;DHT22;40425;51.102;17.208;2022-08-11T19:29:18;20.10;99.00
40696;DHT22;40425;51.102;17.208;2022-08-11T19:34:38;19.60;99.90
40696;DHT22;40425;51.102;17.208;2022-08-11T19:40:06;19.40;99.90
40696;DHT22;40425;51.102;17.208;2022-08-11T19:45:28;19.20;99.90
40696;DHT22;40425;51.102;17.208;2022-08-11T19:50:47;19.10;99.90
40696;DHT22;40425;51.102;17.208;2022-08-11T19:56:07;19.00;99.90
40696;DHT22;40425;51.102;17.208;2022-08-11T20:01:27;18.90;99.90
40696;DHT22;40425;51.102;17.208;2022-08-11T20:06:47;18.70;99.90
40696;DHT22;40425;51.102;17.208;2022-08-11T20:12:08;18.70;99.90
40696;DHT22;40425;51.102;17.208;2022-08-11T20:17:34;18.50;99.90
40696;DHT22;40425;51.102;17.208;2022-08-11T20:22:59;18.20;99.90
40696;DHT22;40425;51.102;17.208;2022-08-11T20:28:19;17.80;99.90
40696;DHT22;40425;51.102;17.208;2022-08-11T20:33:41;17.60;99.90
40696;DHT22;40425;51.102;17.208;2022-08-11T20:39:02;17.70;99.90
40696;DHT22;40425;51.102;17.208;2022-08-11T20:44:22;17.50;99.90
40696;DHT22;40425;51.102;17.208;2022-08-11T20:49:42;17.40;99.90
40696;DHT22;40425;51.102;17.208;2022-08-11T20:55:05;17.20;99.90
40696;DHT22;40425;51.102;17.208;2022-08-11T21:00:27;16.60;99.90
40696;DHT22;40425;51.102;17.208;2022-08-11T21:05:47;16.60;99.90
40696;DHT22;40425;51.102;17.208;2022-08-11T21:11:07;16.40;99.90
40696;DHT22;40425;51.102;17.208;2022-08-11T21:16:31;16.40;99.90
40696;DHT22;40425;51.102;17.208;2022-08-11T21:21:52;16.40;99.90
40696;DHT22;40425;51.102;17.208;2022-08-11T21:27:14;16.40;99.90
40696;DHT22;40425;51.102;17.208;2022-08-11T21:32:36;16.40;99.90
40696;DHT22;40425;51.102;17.208;2022-08-11T21:37:56;16.30;99.90
40696;DHT22;40425;51.102;17.208;2022-08-11T21:43:17;16.20;99.90
40696;DHT22;40425;51.102;17.208;2022-08-11T21:48:38;16.20;99.90
40696;DHT22;40425;51.102;17.208;2022-08-11T21:53:59;16.10;99.90
40696;DHT22;40425;51.102;17.208;2022-08-11T21:59:30;16.00;99.90
40696;DHT22;40425;51.102;17.208;2022-08-11T22:04:54;16.00;99.90
40696;DHT22;40425;51.102;17.208;2022-08-11T22:10:14;16.00;99.90
40696;DHT22;40425;51.102;17.208;2022-08-11T22:15:35;16.00;99.90
40696;DHT22;40425;51.102;17.208;2022-08-11T22:20:55;15.80;99.90
40696;DHT22;40425;51.102;17.208;2022-08-11T22:26:15;15.40;99.90
40696;DHT22;40425;51.102;17.208;2022-08-11T22:31:35;15.30;99.90
40696;DHT22;40425;51.102;17.208;2022-08-11T22:36:55;15.20;99.90
40696;DHT22;40425;51.102;17.208;2022-08-11T22:42:15;14.90;99.90
40696;DHT22;40425;51.102;17.208;2022-08-11T22:47:35;14.70;99.90
40696;DHT22;40425;51.102;17.208;2022-08-11T22:52:56;14.60;99.90
40696;DHT22;40425;51.102;17.208;2022-08-11T22:58:17;14.70;99.90
40696;DHT22;40425;51.102;17.208;2022-08-11T23:03:37;14.70;99.90
40696;DHT22;40425;51.102;17.208;2022-08-11T23:08:58;14.70;99.90
40696;DHT22;40425;51.102;17.208;2022-08-11T23:14:20;14.60;99.90
40696;DHT22;40425;51.102;17.208;2022-08-11T23:19:40;14.60;99.90
40696;DHT22;40425;51.102;17.208;2022-08-11T23:25:04;14.50;99.90
40696;DHT22;40425;51.102;17.208;2022-08-11T23:30:24;14.40;99.90
40696;DHT22;40425;51.102;17.208;2022-08-11T23:35:49;14.00;99.90
40696;DHT22;40425;51.102;17.208;2022-08-11T23:41:12;14.00;99.90
40696;DHT22;40425;51.102;17.208;2022-08-11T23:46:32;13.70;99.90
40696;DHT22;40425;51.102;17.208;2022-08-11T23:51:52;13.50;99.90
40696;DHT22;40425;51.102;17.208;2022-08-11T23:57:12;13.70;99.90
